sensor_id;sensor_type;location;lat;lon;timestamp;temperature;humidity
18721;DHT22;9489;50.948;3.114;2024-01-07T00:00:04;5.10;99.90
18721;DHT22;9489;50.948;3.114;2024-01-07T00:02:30;5.10;99.90
18721;DHT22;9489;50.948;3.114;2024-01-07T00:04:59;5.00;99.90
18721;DHT22;9489;50.948;3.114;2024-01-07T00:07:24;5.00;99.90
18721;DHT22;9489;50.948;3.114;2024-01-07T00:09:50;5.00;99.90
18721;DHT22;9489;50.948;3.114;2024-01-07T00:12:15;5.00;99.90
18721;DHT22;9489;50.948;3.114;2024-01-07T00:14:41;5.10;99.90
18721;DHT22;9489;50.948;3.114;2024-01-07T00:17:07;5.10;99.90
18721;DHT22;9489;50.948;3.114;2024-01-07T00:19:33;5.10;99.90
18721;DHT22;9489;50.948;3.114;2024-01-07T00:22:01;5.10;99.90
18721;DHT22;9489;50.948;3.114;2024-01-07T00:24:27;5.10;99.90
18721;DHT22;9489;50.948;3.114;2024-01-07T00:26:55;5.00;99.90
18721;DHT22;9489;50.948;3.114;2024-01-07T00:29:21;5.10;99.90
18721;DHT22;9489;50.948;3.114;2024-01-07T00:31:46;5.00;99.90
18721;DHT22;9489;50.948;3.114;2024-01-07T00:34:12;5.00;99.90
18721;DHT22;9489;50.948;3.114;2024-01-07T00:36:37;5.10;99.90
18721;DHT22;9489;50.948;3.114;2024-01-07T00:39:05;5.10;99.90
18721;DHT22;9489;50.948;3.114;2024-01-07T00:41:31;5.10;99.90
18721;DHT22;9489;50.948;3.114;2024-01-07T00:43:56;5.10;99.90
18721;DHT22;9489;50.948;3.114;2024-01-07T00:46:22;5.20;99.90
18721;DHT22;9489;50.948;3.114;2024-01-07T00:48:48;5.10;99.90
18721;DHT22;9489;50.948;3.114;2024-01-07T00:51:13;5.10;99.90
18721;DHT22;9489;50.948;3.114;2024-01-07T00:53:40;5.10;99.90
18721;DHT22;9489;50.948;3.114;2024-01-07T00:56:06;5.10;99.90
18721;DHT22;9489;50.948;3.114;2024-01-07T00:58:32;5.00;99.90
18721;DHT22;9489;50.948;3.114;2024-01-07T01:00:57;5.00;99.90
18721;DHT22;9489;50.948;3.114;2024-01-07T01:03:25;5.00;99.90
18721;DHT22;9489;50.948;3.114;2024-01-07T01:05:51;5.00;99.90
18721;DHT22;9489;50.948;3.114;2024-01-07T01:08:17;4.90;99.90
18721;DHT22;9489;50.948;3.114;2024-01-07T01:10:42;4.90;99.90
18721;DHT22;9489;50.948;3.114;2024-01-07T01:13:09;4.80;99.90
18721;DHT22;9489;50.948;3.114;2024-01-07T01:15:34;4.90;99.90
18721;DHT22;9489;50.948;3.114;2024-01-07T01:18:00;4.80;99.90
18721;DHT22;9489;50.948;3.114;2024-01-07T01:20:26;4.80;99.90
18721;DHT22;9489;50.948;3.114;2024-01-07T01:22:51;4.80;99.90
18721;DHT22;9489;50.948;3.114;2024-01-07T01:25:17;4.70;99.90
18721;DHT22;9489;50.948;3.114;2024-01-07T01:27:43;4.70;99.90
18721;DHT22;9489;50.948;3.114;2024-01-07T01:30:10;4.60;99.90
18721;DHT22;9489;50.948;3.114;2024-01-07T01:32:36;4.50;99.90
18721;DHT22;9489;50.948;3.114;2024-01-07T01:35:01;4.40;99.90
18721;DHT22;9489;50.948;3.114;2024-01-07T01:37:27;4.30;99.90
18721;DHT22;9489;50.948;3.114;2024-01-07T01:39:53;4.40;99.90
18721;DHT22;9489;50.948;3.114;2024-01-07T01:42:19;4.30;99.90
18721;DHT22;9489;50.948;3.114;2024-01-07T01:44:45;4.30;99.90
18721;DHT22;9489;50.948;3.114;2024-01-07T01:47:11;4.20;99.90
18721;DHT22;9489;50.948;3.114;2024-01-07T01:49:37;4.10;99.90
18721;DHT22;9489;50.948;3.114;2024-01-07T01:52:04;4.10;99.90
18721;DHT22;9489;50.948;3.114;2024-01-07T01:54:30;4.10;99.90
18721;DHT22;9489;50.948;3.114;2024-01-07T01:56:56;4.00;99.90
18721;DHT22;9489;50.948;3.114;2024-01-07T01:59:23;4.00;99.90
18721;DHT22;9489;50.948;3.114;2024-01-07T02:01:49;4.00;99.90
18721;DHT22;9489;50.948;3.114;2024-01-07T02:04:15;3.90;99.90
18721;DHT22;9489;50.948;3.114;2024-01-07T02:06:41;3.90;99.90
18721;DHT22;9489;50.948;3.114;2024-01-07T02:09:07;3.80;99.90
18721;DHT22;9489;50.948;3.114;2024-01-07T02:11:32;3.80;99.90
18721;DHT22;9489;50.948;3.114;2024-01-07T02:13:58;3.80;99.90
18721;DHT22;9489;50.948;3.114;2024-01-07T02:16:24;3.70;99.90
18721;DHT22;9489;50.948;3.114;2024-01-07T02:18:50;3.70;99.90
18721;DHT22;9489;50.948;3.114;2024-01-07T02:21:15;3.70;99.90
18721;DHT22;9489;50.948;3.114;2024-01-07T02:23:41;3.70;99.90
18721;DHT22;9489;50.948;3.114;2024-01-07T02:26:07;3.70;99.90
18721;DHT22;9489;50.948;3.114;2024-01-07T02:28:33;3.70;99.90
18721;DHT22;9489;50.948;3.114;2024-01-07T02:30:59;3.70;99.90
18721;DHT22;9489;50.948;3.114;2024-01-07T02:33:25;3.70;99.90
18721;DHT22;9489;50.948;3.114;2024-01-07T02:35:50;3.70;99.90
18721;DHT22;9489;50.948;3.114;2024-01-07T02:38:16;3.60;99.90
18721;DHT22;9489;50.948;3.114;2024-01-07T02:40:42;3.70;99.90
18721;DHT22;9489;50.948;3.114;2024-01-07T02:43:08;3.60;99.90
18721;DHT22;9489;50.948;3.114;2024-01-07T02:45:34;3.60;99.90
18721;DHT22;9489;50.948;3.114;2024-01-07T02:48:00;3.60;99.90
18721;DHT22;9489;50.948;3.114;2024-01-07T02:50:25;3.60;99.90
18721;DHT22;9489;50.948;3.114;2024-01-07T02:52:51;3.50;99.90
18721;DHT22;9489;50.948;3.114;2024-01-07T02:55:17;3.50;99.90
18721;DHT22;9489;50.948;3.114;2024-01-07T02:57:42;3.50;99.90
18721;DHT22;9489;50.948;3.114;2024-01-07T03:00:08;3.50;99.90
18721;DHT22;9489;50.948;3.114;2024-01-07T03:02:34;3.60;99.90
18721;DHT22;9489;50.948;3.114;2024-01-07T03:04:59;3.50;99.90
18721;DHT22;9489;50.948;3.114;2024-01-07T03:07:25;3.50;99.90
18721;DHT22;9489;50.948;3.114;2024-01-07T03:09:51;3.50;99.90
18721;DHT22;9489;50.948;3.114;2024-01-07T03:12:17;3.50;99.90
18721;DHT22;9489;50.948;3.114;2024-01-07T03:14:43;3.60;99.90
18721;DHT22;9489;50.948;3.114;2024-01-07T03:17:11;3.60;99.90
18721;DHT22;9489;50.948;3.114;2024-01-07T03:19:38;3.60;99.90
18721;DHT22;9489;50.948;3.114;2024-01-07T03:22:04;3.70;99.90
18721;DHT22;9489;50.948;3.114;2024-01-07T03:24:32;3.70;99.90
18721;DHT22;9489;50.948;3.114;2024-01-07T03:26:58;3.70;99.90
18721;DHT22;9489;50.948;3.114;2024-01-07T03:29:23;3.80;99.90
18721;DHT22;9489;50.948;3.114;2024-01-07T03:31:49;3.80;99.90
18721;DHT22;9489;50.948;3.114;2024-01-07T03:34:16;3.80;99.90
18721;DHT22;9489;50.948;3.114;2024-01-07T03:36:41;3.80;99.90
18721;DHT22;9489;50.948;3.114;2024-01-07T03:39:07;3.80;99.90
18721;DHT22;9489;50.948;3.114;2024-01-07T03:41:33;3.70;99.90
18721;DHT22;9489;50.948;3.114;2024-01-07T03:43:59;3.70;99.90
18721;DHT22;9489;50.948;3.114;2024-01-07T03:46:24;3.70;99.90
18721;DHT22;9489;50.948;3.114;2024-01-07T03:48:50;3.70;99.90
18721;DHT22;9489;50.948;3.114;2024-01-07T03:51:16;3.70;99.90
18721;DHT22;9489;50.948;3.114;2024-01-07T03:53:42;3.60;99.90
18721;DHT22;9489;50.948;3.114;2024-01-07T03:56:08;3.60;99.90
18721;DHT22;9489;50.948;3.114;2024-01-07T03:58:33;3.60;99.90
18721;DHT22;9489;50.948;3.114;2024-01-07T04:01:00;3.50;99.90
18721;DHT22;9489;50.948;3.114;2024-01-07T04:03:26;3.50;99.90
18721;DHT22;9489;50.948;3.114;2024-01-07T04:05:52;3.40;99.90
18721;DHT22;9489;50.948;3.114;2024-01-07T04:08:17;3.50;99.90
18721;DHT22;9489;50.948;3.114;2024-01-07T04:10:43;3.50;99.90
18721;DHT22;9489;50.948;3.114;2024-01-07T04:13:09;3.40;99.90
18721;DHT22;9489;50.948;3.114;2024-01-07T04:15:35;3.40;99.90
18721;DHT22;9489;50.948;3.114;2024-01-07T04:18:02;3.40;99.90
18721;DHT22;9489;50.948;3.114;2024-01-07T04:20:29;3.40;99.90
18721;DHT22;9489;50.948;3.114;2024-01-07T04:22:55;3.40;99.90
18721;DHT22;9489;50.948;3.114;2024-01-07T04:25:20;3.40;99.90
18721;DHT22;9489;50.948;3.114;2024-01-07T04:27:46;3.40;99.90
18721;DHT22;9489;50.948;3.114;2024-01-07T04:30:12;3.50;99.90
18721;DHT22;9489;50.948;3.114;2024-01-07T04:32:38;3.50;99.90
18721;DHT22;9489;50.948;3.114;2024-01-07T04:35:03;3.50;99.90
18721;DHT22;9489;50.948;3.114;2024-01-07T04:37:29;3.60;99.90
18721;DHT22;9489;50.948;3.114;2024-01-07T04:39:55;3.60;99.90
18721;DHT22;9489;50.948;3.114;2024-01-07T04:42:21;3.60;99.90
18721;DHT22;9489;50.948;3.114;2024-01-07T04:44:46;3.60;99.90
18721;DHT22;9489;50.948;3.114;2024-01-07T04:49:54;3.60;99.90
18721;DHT22;9489;50.948;3.114;2024-01-07T04:52:19;3.70;99.90
18721;DHT22;9489;50.948;3.114;2024-01-07T04:54:45;3.60;99.90
18721;DHT22;9489;50.948;3.114;2024-01-07T04:57:11;3.60;99.90
18721;DHT22;9489;50.948;3.114;2024-01-07T04:59:36;3.70;99.90
18721;DHT22;9489;50.948;3.114;2024-01-07T05:02:03;3.60;99.90
18721;DHT22;9489;50.948;3.114;2024-01-07T05:04:28;3.70;99.90
18721;DHT22;9489;50.948;3.114;2024-01-07T05:06:54;3.70;99.90
18721;DHT22;9489;50.948;3.114;2024-01-07T05:09:20;3.70;99.90
18721;DHT22;9489;50.948;3.114;2024-01-07T05:11:45;3.70;99.90
18721;DHT22;9489;50.948;3.114;2024-01-07T05:14:11;3.70;99.90
18721;DHT22;9489;50.948;3.114;2024-01-07T05:16:37;3.70;99.90
18721;DHT22;9489;50.948;3.114;2024-01-07T05:19:03;3.70;99.90
18721;DHT22;9489;50.948;3.114;2024-01-07T05:21:29;3.70;99.90
18721;DHT22;9489;50.948;3.114;2024-01-07T05:23:54;3.70;99.90
18721;DHT22;9489;50.948;3.114;2024-01-07T05:26:21;3.70;99.90
18721;DHT22;9489;50.948;3.114;2024-01-07T05:28:47;3.70;99.90
18721;DHT22;9489;50.948;3.114;2024-01-07T05:31:16;3.60;99.90
18721;DHT22;9489;50.948;3.114;2024-01-07T05:33:43;3.60;99.90
18721;DHT22;9489;50.948;3.114;2024-01-07T05:36:13;3.70;99.90
18721;DHT22;9489;50.948;3.114;2024-01-07T05:38:39;3.60;99.90
18721;DHT22;9489;50.948;3.114;2024-01-07T05:41:06;3.70;99.90
18721;DHT22;9489;50.948;3.114;2024-01-07T05:43:32;3.70;99.90
18721;DHT22;9489;50.948;3.114;2024-01-07T05:45:57;3.60;99.90
18721;DHT22;9489;50.948;3.114;2024-01-07T05:48:23;3.60;99.90
18721;DHT22;9489;50.948;3.114;2024-01-07T05:50:49;3.60;99.90
18721;DHT22;9489;50.948;3.114;2024-01-07T05:53:16;3.70;99.90
18721;DHT22;9489;50.948;3.114;2024-01-07T05:55:42;3.70;99.90
18721;DHT22;9489;50.948;3.114;2024-01-07T05:58:08;3.60;99.90
18721;DHT22;9489;50.948;3.114;2024-01-07T06:00:34;3.60;99.90
18721;DHT22;9489;50.948;3.114;2024-01-07T06:02:59;3.60;99.90
18721;DHT22;9489;50.948;3.114;2024-01-07T06:05:26;3.70;99.90
18721;DHT22;9489;50.948;3.114;2024-01-07T06:07:52;3.70;99.90
18721;DHT22;9489;50.948;3.114;2024-01-07T06:10:17;3.70;99.90
18721;DHT22;9489;50.948;3.114;2024-01-07T06:12:43;3.80;99.90
18721;DHT22;9489;50.948;3.114;2024-01-07T06:15:09;3.70;99.90
18721;DHT22;9489;50.948;3.114;2024-01-07T06:17:34;3.70;99.90
18721;DHT22;9489;50.948;3.114;2024-01-07T06:20:00;3.70;99.90
18721;DHT22;9489;50.948;3.114;2024-01-07T06:22:26;3.70;99.90
18721;DHT22;9489;50.948;3.114;2024-01-07T06:24:52;3.70;99.90
18721;DHT22;9489;50.948;3.114;2024-01-07T06:27:18;3.80;99.90
18721;DHT22;9489;50.948;3.114;2024-01-07T06:29:43;3.70;99.90
18721;DHT22;9489;50.948;3.114;2024-01-07T06:32:09;3.70;99.90
18721;DHT22;9489;50.948;3.114;2024-01-07T06:34:35;3.70;99.90
18721;DHT22;9489;50.948;3.114;2024-01-07T06:37:01;3.60;99.90
18721;DHT22;9489;50.948;3.114;2024-01-07T06:39:27;3.60;99.90
18721;DHT22;9489;50.948;3.114;2024-01-07T06:41:53;3.60;99.90
18721;DHT22;9489;50.948;3.114;2024-01-07T06:44:19;3.70;99.90
18721;DHT22;9489;50.948;3.114;2024-01-07T06:46:45;3.70;99.90
18721;DHT22;9489;50.948;3.114;2024-01-07T06:49:11;3.70;99.90
18721;DHT22;9489;50.948;3.114;2024-01-07T06:51:38;3.60;99.90
18721;DHT22;9489;50.948;3.114;2024-01-07T06:54:04;3.60;99.90
18721;DHT22;9489;50.948;3.114;2024-01-07T06:56:30;3.60;99.90
18721;DHT22;9489;50.948;3.114;2024-01-07T06:58:55;3.70;99.90
18721;DHT22;9489;50.948;3.114;2024-01-07T07:01:22;3.60;99.90
18721;DHT22;9489;50.948;3.114;2024-01-07T07:03:49;3.60;99.90
18721;DHT22;9489;50.948;3.114;2024-01-07T07:06:15;3.60;99.90
18721;DHT22;9489;50.948;3.114;2024-01-07T07:08:41;3.60;99.90
18721;DHT22;9489;50.948;3.114;2024-01-07T07:11:06;3.70;99.90
18721;DHT22;9489;50.948;3.114;2024-01-07T07:13:32;3.70;99.90
18721;DHT22;9489;50.948;3.114;2024-01-07T07:15:59;3.70;99.90
18721;DHT22;9489;50.948;3.114;2024-01-07T07:18:24;3.70;99.90
18721;DHT22;9489;50.948;3.114;2024-01-07T07:20:50;3.70;99.90
18721;DHT22;9489;50.948;3.114;2024-01-07T07:23:17;3.80;99.90
18721;DHT22;9489;50.948;3.114;2024-01-07T07:25:42;3.70;99.90
18721;DHT22;9489;50.948;3.114;2024-01-07T07:28:08;3.70;99.90
18721;DHT22;9489;50.948;3.114;2024-01-07T07:30:34;3.70;99.90
18721;DHT22;9489;50.948;3.114;2024-01-07T07:32:59;3.70;99.90
18721;DHT22;9489;50.948;3.114;2024-01-07T07:35:25;3.70;99.90
18721;DHT22;9489;50.948;3.114;2024-01-07T07:37:50;3.70;99.90
18721;DHT22;9489;50.948;3.114;2024-01-07T07:40:16;3.70;99.90
18721;DHT22;9489;50.948;3.114;2024-01-07T07:42:42;3.70;99.90
18721;DHT22;9489;50.948;3.114;2024-01-07T07:45:08;3.80;99.90
18721;DHT22;9489;50.948;3.114;2024-01-07T07:47:34;3.70;99.90
18721;DHT22;9489;50.948;3.114;2024-01-07T07:50:00;3.70;99.90
18721;DHT22;9489;50.948;3.114;2024-01-07T07:52:26;3.70;99.90
18721;DHT22;9489;50.948;3.114;2024-01-07T07:54:52;3.70;99.90
18721;DHT22;9489;50.948;3.114;2024-01-07T07:57:18;3.70;99.90
18721;DHT22;9489;50.948;3.114;2024-01-07T07:59:46;3.70;99.90
18721;DHT22;9489;50.948;3.114;2024-01-07T08:02:12;3.70;99.90
18721;DHT22;9489;50.948;3.114;2024-01-07T08:04:38;3.70;99.90
18721;DHT22;9489;50.948;3.114;2024-01-07T08:07:06;3.70;99.90
18721;DHT22;9489;50.948;3.114;2024-01-07T08:09:32;3.70;99.90
18721;DHT22;9489;50.948;3.114;2024-01-07T08:11:59;3.70;99.90
18721;DHT22;9489;50.948;3.114;2024-01-07T08:14:25;3.70;99.90
18721;DHT22;9489;50.948;3.114;2024-01-07T08:16:51;3.70;99.90
18721;DHT22;9489;50.948;3.114;2024-01-07T08:19:16;3.70;99.90
18721;DHT22;9489;50.948;3.114;2024-01-07T08:21:42;3.70;99.90
18721;DHT22;9489;50.948;3.114;2024-01-07T08:24:08;3.80;99.90
18721;DHT22;9489;50.948;3.114;2024-01-07T08:26:35;3.80;99.90
18721;DHT22;9489;50.948;3.114;2024-01-07T08:29:01;3.80;99.90
18721;DHT22;9489;50.948;3.114;2024-01-07T08:31:26;3.80;99.90
18721;DHT22;9489;50.948;3.114;2024-01-07T08:33:52;3.90;99.90
18721;DHT22;9489;50.948;3.114;2024-01-07T08:36:18;3.90;99.90
18721;DHT22;9489;50.948;3.114;2024-01-07T08:38:44;3.80;99.90
18721;DHT22;9489;50.948;3.114;2024-01-07T08:41:09;3.80;99.90
18721;DHT22;9489;50.948;3.114;2024-01-07T08:43:35;3.80;99.90
18721;DHT22;9489;50.948;3.114;2024-01-07T08:46:00;3.70;99.90
18721;DHT22;9489;50.948;3.114;2024-01-07T08:48:29;3.80;99.90
18721;DHT22;9489;50.948;3.114;2024-01-07T08:50:54;3.70;99.90
18721;DHT22;9489;50.948;3.114;2024-01-07T08:53:20;3.80;99.90
18721;DHT22;9489;50.948;3.114;2024-01-07T08:55:47;3.80;99.90
18721;DHT22;9489;50.948;3.114;2024-01-07T08:58:14;3.70;99.90
18721;DHT22;9489;50.948;3.114;2024-01-07T09:00:40;3.80;99.90
18721;DHT22;9489;50.948;3.114;2024-01-07T09:03:06;3.90;99.90
18721;DHT22;9489;50.948;3.114;2024-01-07T09:05:32;3.90;99.90
18721;DHT22;9489;50.948;3.114;2024-01-07T09:07:58;3.90;99.90
18721;DHT22;9489;50.948;3.114;2024-01-07T09:10:24;3.90;99.90
18721;DHT22;9489;50.948;3.114;2024-01-07T09:12:50;3.80;99.90
18721;DHT22;9489;50.948;3.114;2024-01-07T09:15:18;3.80;99.90
18721;DHT22;9489;50.948;3.114;2024-01-07T09:17:43;3.90;99.90
18721;DHT22;9489;50.948;3.114;2024-01-07T09:20:10;3.90;99.90
18721;DHT22;9489;50.948;3.114;2024-01-07T09:22:36;3.90;99.90
18721;DHT22;9489;50.948;3.114;2024-01-07T09:25:03;3.90;99.90
18721;DHT22;9489;50.948;3.114;2024-01-07T09:27:32;3.90;99.90
18721;DHT22;9489;50.948;3.114;2024-01-07T09:29:58;4.00;99.90
18721;DHT22;9489;50.948;3.114;2024-01-07T09:32:24;4.00;99.90
18721;DHT22;9489;50.948;3.114;2024-01-07T09:34:50;3.90;99.90
18721;DHT22;9489;50.948;3.114;2024-01-07T09:37:17;3.90;99.90
18721;DHT22;9489;50.948;3.114;2024-01-07T09:39:43;4.00;99.90
18721;DHT22;9489;50.948;3.114;2024-01-07T09:42:18;4.00;99.90
18721;DHT22;9489;50.948;3.114;2024-01-07T09:44:45;4.10;99.90
18721;DHT22;9489;50.948;3.114;2024-01-07T09:47:12;4.10;99.90
18721;DHT22;9489;50.948;3.114;2024-01-07T09:49:39;4.10;99.90
18721;DHT22;9489;50.948;3.114;2024-01-07T09:52:05;4.10;99.90
18721;DHT22;9489;50.948;3.114;2024-01-07T09:54:31;4.10;99.90
18721;DHT22;9489;50.948;3.114;2024-01-07T09:57:02;4.10;99.90
18721;DHT22;9489;50.948;3.114;2024-01-07T09:59:31;4.20;99.90
18721;DHT22;9489;50.948;3.114;2024-01-07T10:01:57;4.10;99.90
18721;DHT22;9489;50.948;3.114;2024-01-07T10:04:24;4.20;99.90
18721;DHT22;9489;50.948;3.114;2024-01-07T10:06:50;4.20;99.90
18721;DHT22;9489;50.948;3.114;2024-01-07T10:09:17;4.20;99.90
18721;DHT22;9489;50.948;3.114;2024-01-07T10:11:44;4.20;99.90
18721;DHT22;9489;50.948;3.114;2024-01-07T10:14:10;4.20;99.90
18721;DHT22;9489;50.948;3.114;2024-01-07T10:16:36;4.20;99.90
18721;DHT22;9489;50.948;3.114;2024-01-07T10:19:02;4.10;99.90
18721;DHT22;9489;50.948;3.114;2024-01-07T10:21:28;4.10;99.90
18721;DHT22;9489;50.948;3.114;2024-01-07T10:24:10;4.10;99.90
18721;DHT22;9489;50.948;3.114;2024-01-07T10:26:40;4.10;99.90
18721;DHT22;9489;50.948;3.114;2024-01-07T10:29:07;4.10;99.90
18721;DHT22;9489;50.948;3.114;2024-01-07T10:31:33;4.10;99.90
18721;DHT22;9489;50.948;3.114;2024-01-07T10:33:59;4.20;99.90
18721;DHT22;9489;50.948;3.114;2024-01-07T10:36:25;4.20;99.90
18721;DHT22;9489;50.948;3.114;2024-01-07T10:38:51;4.20;99.90
18721;DHT22;9489;50.948;3.114;2024-01-07T10:41:20;4.20;99.90
18721;DHT22;9489;50.948;3.114;2024-01-07T10:43:49;4.10;99.90
18721;DHT22;9489;50.948;3.114;2024-01-07T10:46:15;4.10;99.90
18721;DHT22;9489;50.948;3.114;2024-01-07T10:49:00;4.10;99.90
18721;DHT22;9489;50.948;3.114;2024-01-07T10:51:33;4.10;99.90
18721;DHT22;9489;50.948;3.114;2024-01-07T10:54:00;4.10;99.90
18721;DHT22;9489;50.948;3.114;2024-01-07T10:56:33;4.10;99.90
18721;DHT22;9489;50.948;3.114;2024-01-07T10:59:03;4.10;99.90
18721;DHT22;9489;50.948;3.114;2024-01-07T11:01:29;4.10;99.90
18721;DHT22;9489;50.948;3.114;2024-01-07T11:06:40;4.10;99.90
18721;DHT22;9489;50.948;3.114;2024-01-07T11:09:33;4.20;99.90
18721;DHT22;9489;50.948;3.114;2024-01-07T11:12:00;4.20;99.90
18721;DHT22;9489;50.948;3.114;2024-01-07T11:14:42;4.20;99.90
18721;DHT22;9489;50.948;3.114;2024-01-07T11:20:06;4.20;99.90
18721;DHT22;9489;50.948;3.114;2024-01-07T11:22:32;4.20;99.90
18721;DHT22;9489;50.948;3.114;2024-01-07T11:25:01;4.20;99.90
18721;DHT22;9489;50.948;3.114;2024-01-07T11:27:31;4.30;99.90
18721;DHT22;9489;50.948;3.114;2024-01-07T11:32:29;4.20;99.90
18721;DHT22;9489;50.948;3.114;2024-01-07T11:34:55;4.20;99.90
18721;DHT22;9489;50.948;3.114;2024-01-07T11:37:24;4.20;99.90
18721;DHT22;9489;50.948;3.114;2024-01-07T11:39:53;4.20;99.90
18721;DHT22;9489;50.948;3.114;2024-01-07T11:42:20;4.20;99.90
18721;DHT22;9489;50.948;3.114;2024-01-07T11:44:52;4.20;99.90
18721;DHT22;9489;50.948;3.114;2024-01-07T11:47:19;4.20;99.90
18721;DHT22;9489;50.948;3.114;2024-01-07T11:49:45;4.20;99.90
18721;DHT22;9489;50.948;3.114;2024-01-07T11:52:11;4.20;99.90
18721;DHT22;9489;50.948;3.114;2024-01-07T11:54:38;4.20;99.90
18721;DHT22;9489;50.948;3.114;2024-01-07T11:57:05;4.20;99.90
18721;DHT22;9489;50.948;3.114;2024-01-07T11:59:30;4.20;99.90
18721;DHT22;9489;50.948;3.114;2024-01-07T12:01:56;4.20;99.90
18721;DHT22;9489;50.948;3.114;2024-01-07T12:04:22;4.20;99.90
18721;DHT22;9489;50.948;3.114;2024-01-07T12:06:50;4.10;99.90
18721;DHT22;9489;50.948;3.114;2024-01-07T12:09:16;4.20;99.90
18721;DHT22;9489;50.948;3.114;2024-01-07T12:11:42;4.10;99.90
18721;DHT22;9489;50.948;3.114;2024-01-07T12:14:09;4.20;99.90
18721;DHT22;9489;50.948;3.114;2024-01-07T12:16:38;4.30;99.90
18721;DHT22;9489;50.948;3.114;2024-01-07T12:19:04;4.20;99.90
18721;DHT22;9489;50.948;3.114;2024-01-07T12:21:29;4.20;99.90
18721;DHT22;9489;50.948;3.114;2024-01-07T12:23:56;4.10;99.90
18721;DHT22;9489;50.948;3.114;2024-01-07T12:26:26;4.10;99.90
18721;DHT22;9489;50.948;3.114;2024-01-07T12:28:58;4.00;99.90
18721;DHT22;9489;50.948;3.114;2024-01-07T12:31:32;4.00;99.90
18721;DHT22;9489;50.948;3.114;2024-01-07T12:33:59;4.00;99.90
18721;DHT22;9489;50.948;3.114;2024-01-07T12:36:25;4.00;99.90
18721;DHT22;9489;50.948;3.114;2024-01-07T12:38:52;3.90;99.90
18721;DHT22;9489;50.948;3.114;2024-01-07T12:41:22;4.00;99.90
18721;DHT22;9489;50.948;3.114;2024-01-07T12:43:49;3.90;99.90
18721;DHT22;9489;50.948;3.114;2024-01-07T12:46:15;3.90;99.90
18721;DHT22;9489;50.948;3.114;2024-01-07T12:48:41;3.80;99.90
18721;DHT22;9489;50.948;3.114;2024-01-07T12:51:07;3.80;99.90
18721;DHT22;9489;50.948;3.114;2024-01-07T12:53:32;3.90;99.90
18721;DHT22;9489;50.948;3.114;2024-01-07T12:55:58;3.80;99.90
18721;DHT22;9489;50.948;3.114;2024-01-07T12:58:24;3.90;99.90
18721;DHT22;9489;50.948;3.114;2024-01-07T13:00:49;3.80;99.90
18721;DHT22;9489;50.948;3.114;2024-01-07T13:03:15;3.80;99.90
18721;DHT22;9489;50.948;3.114;2024-01-07T13:05:45;3.90;99.90
18721;DHT22;9489;50.948;3.114;2024-01-07T13:08:12;3.90;99.90
18721;DHT22;9489;50.948;3.114;2024-01-07T13:10:38;4.00;99.90
18721;DHT22;9489;50.948;3.114;2024-01-07T13:13:04;4.10;99.90
18721;DHT22;9489;50.948;3.114;2024-01-07T13:15:30;4.10;99.90
18721;DHT22;9489;50.948;3.114;2024-01-07T13:17:57;4.00;99.90
18721;DHT22;9489;50.948;3.114;2024-01-07T13:20:22;4.10;99.90
18721;DHT22;9489;50.948;3.114;2024-01-07T13:22:49;4.20;99.90
18721;DHT22;9489;50.948;3.114;2024-01-07T13:25:15;4.20;99.90
18721;DHT22;9489;50.948;3.114;2024-01-07T13:27:40;4.20;99.90
18721;DHT22;9489;50.948;3.114;2024-01-07T13:30:08;4.20;99.90
18721;DHT22;9489;50.948;3.114;2024-01-07T13:32:33;4.30;99.90
18721;DHT22;9489;50.948;3.114;2024-01-07T13:35:03;4.20;99.90
18721;DHT22;9489;50.948;3.114;2024-01-07T13:37:29;4.20;99.90
18721;DHT22;9489;50.948;3.114;2024-01-07T13:39:56;4.20;99.90
18721;DHT22;9489;50.948;3.114;2024-01-07T13:42:22;4.00;99.90
18721;DHT22;9489;50.948;3.114;2024-01-07T13:44:48;4.00;99.90
18721;DHT22;9489;50.948;3.114;2024-01-07T13:47:14;4.00;99.90
18721;DHT22;9489;50.948;3.114;2024-01-07T13:49:42;4.00;99.90
18721;DHT22;9489;50.948;3.114;2024-01-07T13:52:10;4.00;99.90
18721;DHT22;9489;50.948;3.114;2024-01-07T13:54:36;3.90;99.90
18721;DHT22;9489;50.948;3.114;2024-01-07T13:57:03;3.90;99.90
18721;DHT22;9489;50.948;3.114;2024-01-07T13:59:29;3.80;99.90
18721;DHT22;9489;50.948;3.114;2024-01-07T14:01:55;3.70;99.90
18721;DHT22;9489;50.948;3.114;2024-01-07T14:04:23;3.70;99.90
18721;DHT22;9489;50.948;3.114;2024-01-07T14:06:56;3.80;99.90
18721;DHT22;9489;50.948;3.114;2024-01-07T14:09:22;3.70;99.90
18721;DHT22;9489;50.948;3.114;2024-01-07T14:11:48;3.80;99.90
18721;DHT22;9489;50.948;3.114;2024-01-07T14:14:14;3.80;99.90
18721;DHT22;9489;50.948;3.114;2024-01-07T14:16:39;3.80;99.90
18721;DHT22;9489;50.948;3.114;2024-01-07T14:19:06;3.80;99.90
18721;DHT22;9489;50.948;3.114;2024-01-07T14:21:32;3.80;99.90
18721;DHT22;9489;50.948;3.114;2024-01-07T14:23:57;3.70;99.90
18721;DHT22;9489;50.948;3.114;2024-01-07T14:26:23;3.70;99.90
18721;DHT22;9489;50.948;3.114;2024-01-07T14:28:50;3.70;99.90
18721;DHT22;9489;50.948;3.114;2024-01-07T14:31:19;3.70;99.90
18721;DHT22;9489;50.948;3.114;2024-01-07T14:33:44;3.60;99.90
18721;DHT22;9489;50.948;3.114;2024-01-07T14:36:10;3.70;99.90
18721;DHT22;9489;50.948;3.114;2024-01-07T14:38:45;3.70;99.90
18721;DHT22;9489;50.948;3.114;2024-01-07T14:41:14;3.70;99.90
18721;DHT22;9489;50.948;3.114;2024-01-07T14:43:40;3.70;99.90
18721;DHT22;9489;50.948;3.114;2024-01-07T14:46:09;3.70;99.90
18721;DHT22;9489;50.948;3.114;2024-01-07T14:48:35;3.70;99.90
18721;DHT22;9489;50.948;3.114;2024-01-07T14:51:02;3.70;99.90
18721;DHT22;9489;50.948;3.114;2024-01-07T14:53:27;3.60;99.90
18721;DHT22;9489;50.948;3.114;2024-01-07T14:55:56;3.50;99.90
18721;DHT22;9489;50.948;3.114;2024-01-07T14:58:24;3.50;99.90
18721;DHT22;9489;50.948;3.114;2024-01-07T15:00:50;3.50;99.90
18721;DHT22;9489;50.948;3.114;2024-01-07T15:03:16;3.40;99.90
18721;DHT22;9489;50.948;3.114;2024-01-07T15:05:42;3.50;99.90
18721;DHT22;9489;50.948;3.114;2024-01-07T15:08:08;3.40;99.90
18721;DHT22;9489;50.948;3.114;2024-01-07T15:10:34;3.40;99.90
18721;DHT22;9489;50.948;3.114;2024-01-07T15:12:59;3.40;99.90
18721;DHT22;9489;50.948;3.114;2024-01-07T15:15:25;3.30;99.90
18721;DHT22;9489;50.948;3.114;2024-01-07T15:17:58;3.30;99.90
18721;DHT22;9489;50.948;3.114;2024-01-07T15:20:24;3.40;99.90
18721;DHT22;9489;50.948;3.114;2024-01-07T15:22:50;3.40;99.90
18721;DHT22;9489;50.948;3.114;2024-01-07T15:25:16;3.30;99.90
18721;DHT22;9489;50.948;3.114;2024-01-07T15:27:42;3.30;99.90
18721;DHT22;9489;50.948;3.114;2024-01-07T15:30:09;3.20;99.90
18721;DHT22;9489;50.948;3.114;2024-01-07T15:32:34;3.20;99.90
18721;DHT22;9489;50.948;3.114;2024-01-07T15:35:00;3.20;99.90
18721;DHT22;9489;50.948;3.114;2024-01-07T15:37:26;3.20;99.90
18721;DHT22;9489;50.948;3.114;2024-01-07T15:39:51;3.20;99.90
18721;DHT22;9489;50.948;3.114;2024-01-07T15:42:19;3.20;99.90
18721;DHT22;9489;50.948;3.114;2024-01-07T15:44:45;3.20;99.90
18721;DHT22;9489;50.948;3.114;2024-01-07T15:47:11;3.10;99.90
18721;DHT22;9489;50.948;3.114;2024-01-07T15:49:37;3.10;99.90
18721;DHT22;9489;50.948;3.114;2024-01-07T15:52:03;3.10;99.90
18721;DHT22;9489;50.948;3.114;2024-01-07T15:54:30;3.00;99.90
18721;DHT22;9489;50.948;3.114;2024-01-07T15:56:56;3.00;99.90
18721;DHT22;9489;50.948;3.114;2024-01-07T15:59:22;3.00;99.90
18721;DHT22;9489;50.948;3.114;2024-01-07T16:01:48;3.00;99.90
18721;DHT22;9489;50.948;3.114;2024-01-07T16:04:14;3.00;99.90
18721;DHT22;9489;50.948;3.114;2024-01-07T16:06:43;3.10;99.90